Santa Teresa — D5AH6 — position and weather

sailwx.info

Track history (hours):
 
Tides and Currents Weather Stations Pressure Air Temp Water Temp Dewpoint Dewpoint Depression Visibility Wind Speed Wind Dir Waves Ship Positions

Santa Teresa

Last reported at 2015-Apr-17 19:09 UTC. Time now 2015-Apr-21 02:56 UTC.
Position N 23°00' E 117°11'.

Length 300 m; draft 10 m.

Type: Ship (hazmat cat A). MMSI: 636092317.

Date/timePositionNaut miles runAvg speedWind from/ knotsBaromVisibWave heightAir tempDewpointWater temp
2015-Apr-17 19:09N 23°00' E 117°11'1318.6
2015-Apr-17 18:28N 22°52' E 117°00'14317.7
2015-Apr-17 10:23N 22°25' E 114°29'1411.5
2015-Apr-17 09:09N 22°34' E 114°17'1 0.5
2015-Apr-17 07:15N 22°34' E 114°16'0 0.0
2015-Apr-17 05:31N 22°34' E 114°16'0 0.0
2015-Apr-17 04:25N 22°34' E 114°16'0 0.0
2015-Apr-17 00:25N 22°34' E 114°16'0 0.1
2015-Apr-16 23:31N 22°34' E 114°16'1 0.8
2015-Apr-16 22:25N 22°34' E 114°17'16 7.7
2015-Apr-16 20:23N 22°22' E 114°28'7 9.0
2015-Apr-16 19:33N 22°15' E 114°26'9 8.9
2015-Apr-16 18:33N 22°08' E 114°21'11 8.5
2015-Apr-16 17:17N 22°13' E 114°10'810.6
2015-Apr-16 16:34N 22°19' E 114°06'2 2.3
2015-Apr-16 15:33N 22°20' E 114°07'0 0.0
2015-Apr-16 12:22N 22°20' E 114°07'0 0.0
2015-Apr-16 11:22N 22°20' E 114°07'0 0.0
2015-Apr-16 05:13N 22°20' E 114°07'0 0.0
2015-Apr-16 00:32N 22°20' E 114°07'8 7.0
2015-Apr-15 23:25N 22°13' E 114°10'7 7.7
2015-Apr-15 22:34N 22°09' E 114°15'1413.9
2015-Apr-15 21:33N 22°09' E 114°30'18618.6
2015-Apr-15 11:33N 23°18' E 117°38'1817.9
2015-Apr-15 10:32N 23°32' E 117°50'1616.7
2015-Apr-15 09:34N 23°46' E 118°00'1817.9
2015-Apr-15 08:33N 24°00' E 118°12'1514.8
2015-Apr-15 07:33N 24°15' E 118°16'1615.7
2015-Apr-15 06:33N 24°26' E 118°04'5 5.0
2015-Apr-15 05:34N 24°31' E 118°05'0 0.0
2015-Apr-15 04:34N 24°31' E 118°05'0 0.0
2015-Apr-15 03:33N 24°31' E 118°05'0 0.0
2015-Apr-15 02:33N 24°31' E 118°05'0 0.0
2015-Apr-15 01:33N 24°31' E 118°05'0 0.0
2015-Apr-15 00:34N 24°31' E 118°05'0 0.0
2015-Apr-14 23:33N 24°31' E 118°05'0 0.0
2015-Apr-14 22:31N 24°31' E 118°05'0 0.0
2015-Apr-14 21:34N 24°31' E 118°05'0 0.0
2015-Apr-14 20:33N 24°31' E 118°05'0 0.0
2015-Apr-14 19:33N 24°31' E 118°05'0 0.0
2015-Apr-14 18:33N 24°31' E 118°05'4 3.7
2015-Apr-14 17:33N 24°27' E 118°03'9 9.1
2015-Apr-14 16:33N 24°21' E 118°10'1110.6
2015-Apr-14 15:33N 24°13' E 118°18'1414.4
2015-Apr-14 14:33N 24°14' E 118°34'1414.2
2015-Apr-14 13:33N 24°18' E 118°48'1515.3
2015-Apr-14 12:33N 24°22' E 119°05'1717.2
2015-Apr-14 11:33N 24°34' E 119°19'3516.9
2015-Apr-14 09:27N 24°55' E 119°50'1617.5
2015-Apr-14 08:32N 25°06' E 120°03'28217.5
2015-Apr-13 16:21N 29°17' E 122°27'1720.0
2015-Apr-13 15:31N 29°34' E 122°29'1717.3
2015-Apr-13 14:33N 29°47' E 122°16'9 9.2
2015-Apr-13 13:33N 29°48' E 122°06'5 0.5
2015-Apr-13 03:32N 29°46' E 122°00'0 0.0
2015-Apr-13 02:33N 29°46' E 122°00'4 3.7
2015-Apr-13 01:24N 29°48' E 122°05'8 9.0
2015-Apr-13 00:31N 29°49' E 122°14'1010.8
2015-Apr-12 23:33N 29°43' E 122°25'1313.3
2015-Apr-12 22:34N 29°44' E 122°40'8 1.3
2015-Apr-12 16:26N 29°49' E 122°47'1 1.0
2015-Apr-12 15:25N 29°48' E 122°48'2 1.8
2015-Apr-12 14:07N 29°49' E 122°50'1 1.3
2015-Apr-12 13:04N 29°50' E 122°49'0 0.6
2015-Apr-12 12:31N 29°50' E 122°49'1 1.3
2015-Apr-12 11:33N 29°51' E 122°51'1212.3
2015-Apr-12 10:33N 29°58' E 123°02'1313.4
2015-Apr-12 09:33N 30°12' E 123°03'1413.5
2015-Apr-12 08:33N 30°22' E 122°53'1413.8
2015-Apr-12 07:33N 30°29' E 122°39'1413.7
2015-Apr-12 06:33N 30°32' E 122°24'1312.5
2015-Apr-12 05:33N 30°34' E 122°09'7 7.0
2015-Apr-12 04:33N 30°38' E 122°03'0 0.0
2015-Apr-12 03:33N 30°38' E 122°03'0 0.0
2015-Apr-12 02:32N 30°38' E 122°03'0 0.0
2015-Apr-12 01:29N 30°38' E 122°03'0 0.0
2015-Apr-12 00:29N 30°38' E 122°03'0 0.0
2015-Apr-11 23:29N 30°38' E 122°03'0 0.0
2015-Apr-11 22:32N 30°38' E 122°03'0 0.0
2015-Apr-11 21:17N 30°38' E 122°03'0 0.0
2015-Apr-11 20:31N 30°38' E 122°03'0 0.0
2015-Apr-11 19:29N 30°38' E 122°03'0 0.0
2015-Apr-11 18:32N 30°38' E 122°03'0 0.0
2015-Apr-11 17:28N 30°38' E 122°03'0 0.0
2015-Apr-11 16:32N 30°38' E 122°03'0 0.0
2015-Apr-11 15:32N 30°38' E 122°03'0 0.0
2015-Apr-11 14:32N 30°38' E 122°03'0 0.0
2015-Apr-11 13:17N 30°38' E 122°03'0 0.0
2015-Apr-11 12:32N 30°38' E 122°03'0 0.0
2015-Apr-11 11:31N 30°38' E 122°03'0 0.0
2015-Apr-11 10:26N 30°38' E 122°03'0 0.0
2015-Apr-11 09:29N 30°38' E 122°03'0 0.0
2015-Apr-11 08:28N 30°38' E 122°03'0 0.0
2015-Apr-11 07:10N 30°38' E 122°03'0 0.0
2015-Apr-11 06:14N 30°38' E 122°03'0 0.6
2015-Apr-11 05:31N 30°38' E 122°03'1111.7
2015-Apr-11 04:33N 30°33' E 122°15'6 6.1
2015-Apr-11 03:30N 30°33' E 122°22'1210.2
2015-Apr-11 02:17N 30°32' E 122°37'1513.1
2015-Apr-11 01:11N 30°34' E 122°53'1212.7
2015-Apr-11 00:16N 30°36' E 123°06'1013.8
2015-Apr-10 23:32N 30°41' E 123°17'1513.4
2015-Apr-10 22:24N 30°45' E 123°34'3 0.7
2015-Apr-10 18:07N 30°48' E 123°34'0 0.5
2015-Apr-10 17:22N 30°48' E 123°34'  
Track history (hours):
 
Tides and Currents Weather Stations Pressure Air Temp Water Temp Dewpoint Dewpoint Depression Visibility Wind Speed Wind Dir Waves Ship Positions

Santa Teresa

Last reported at 2015-Apr-17 19:09 UTC. Time now 2015-Apr-21 02:56 UTC.
Position N 23°00' E 117°11'.

Length 300 m; draft 10 m.

Type: Ship (hazmat cat A). MMSI: 636092317.

Date/timePositionNaut miles runAvg speedWind from/ knotsBaromVisibWave heightAir tempDewpointWater temp
2015-Apr-17 19:09N 23°00' E 117°11'1318.6
2015-Apr-17 18:28N 22°52' E 117°00'14317.7
2015-Apr-17 10:23N 22°25' E 114°29'1411.5
2015-Apr-17 09:09N 22°34' E 114°17'1 0.5
2015-Apr-17 07:15N 22°34' E 114°16'0 0.0
2015-Apr-17 05:31N 22°34' E 114°16'0 0.0
2015-Apr-17 04:25N 22°34' E 114°16'0 0.0
2015-Apr-17 00:25N 22°34' E 114°16'0 0.1
2015-Apr-16 23:31N 22°34' E 114°16'1 0.8
2015-Apr-16 22:25N 22°34' E 114°17'16 7.7
2015-Apr-16 20:23N 22°22' E 114°28'7 9.0
2015-Apr-16 19:33N 22°15' E 114°26'9 8.9
2015-Apr-16 18:33N 22°08' E 114°21'11 8.5
2015-Apr-16 17:17N 22°13' E 114°10'810.6
2015-Apr-16 16:34N 22°19' E 114°06'2 2.3
2015-Apr-16 15:33N 22°20' E 114°07'0 0.0
2015-Apr-16 12:22N 22°20' E 114°07'0 0.0
2015-Apr-16 11:22N 22°20' E 114°07'0 0.0
2015-Apr-16 05:13N 22°20' E 114°07'0 0.0
2015-Apr-16 00:32N 22°20' E 114°07'8 7.0
2015-Apr-15 23:25N 22°13' E 114°10'7 7.7
2015-Apr-15 22:34N 22°09' E 114°15'1413.9
2015-Apr-15 21:33N 22°09' E 114°30'18618.6
2015-Apr-15 11:33N 23°18' E 117°38'1817.9
2015-Apr-15 10:32N 23°32' E 117°50'1616.7
2015-Apr-15 09:34N 23°46' E 118°00'1817.9
2015-Apr-15 08:33N 24°00' E 118°12'1514.8
2015-Apr-15 07:33N 24°15' E 118°16'1615.7
2015-Apr-15 06:33N 24°26' E 118°04'5 5.0
2015-Apr-15 05:34N 24°31' E 118°05'0 0.0
2015-Apr-15 04:34N 24°31' E 118°05'0 0.0
2015-Apr-15 03:33N 24°31' E 118°05'0 0.0
2015-Apr-15 02:33N 24°31' E 118°05'0 0.0
2015-Apr-15 01:33N 24°31' E 118°05'0 0.0
2015-Apr-15 00:34N 24°31' E 118°05'0 0.0
2015-Apr-14 23:33N 24°31' E 118°05'0 0.0
2015-Apr-14 22:31N 24°31' E 118°05'0 0.0
2015-Apr-14 21:34N 24°31' E 118°05'0 0.0
2015-Apr-14 20:33N 24°31' E 118°05'0 0.0
2015-Apr-14 19:33N 24°31' E 118°05'0 0.0
2015-Apr-14 18:33N 24°31' E 118°05'4 3.7
2015-Apr-14 17:33N 24°27' E 118°03'9 9.1
2015-Apr-14 16:33N 24°21' E 118°10'1110.6
2015-Apr-14 15:33N 24°13' E 118°18'1414.4
2015-Apr-14 14:33N 24°14' E 118°34'1414.2
2015-Apr-14 13:33N 24°18' E 118°48'1515.3
2015-Apr-14 12:33N 24°22' E 119°05'1717.2
2015-Apr-14 11:33N 24°34' E 119°19'3516.9
2015-Apr-14 09:27N 24°55' E 119°50'1617.5
2015-Apr-14 08:32N 25°06' E 120°03'28217.5
2015-Apr-13 16:21N 29°17' E 122°27'1720.0
2015-Apr-13 15:31N 29°34' E 122°29'1717.3
2015-Apr-13 14:33N 29°47' E 122°16'9 9.2
2015-Apr-13 13:33N 29°48' E 122°06'5 0.5
2015-Apr-13 03:32N 29°46' E 122°00'0 0.0
2015-Apr-13 02:33N 29°46' E 122°00'4 3.7
2015-Apr-13 01:24N 29°48' E 122°05'8 9.0
2015-Apr-13 00:31N 29°49' E 122°14'1010.8
2015-Apr-12 23:33N 29°43' E 122°25'1313.3
2015-Apr-12 22:34N 29°44' E 122°40'8 1.3
2015-Apr-12 16:26N 29°49' E 122°47'1 1.0
2015-Apr-12 15:25N 29°48' E 122°48'2 1.8
2015-Apr-12 14:07N 29°49' E 122°50'1 1.3
2015-Apr-12 13:04N 29°50' E 122°49'0 0.6
2015-Apr-12 12:31N 29°50' E 122°49'1 1.3
2015-Apr-12 11:33N 29°51' E 122°51'1212.3
2015-Apr-12 10:33N 29°58' E 123°02'1313.4
2015-Apr-12 09:33N 30°12' E 123°03'1413.5
2015-Apr-12 08:33N 30°22' E 122°53'1413.8
2015-Apr-12 07:33N 30°29' E 122°39'1413.7
2015-Apr-12 06:33N 30°32' E 122°24'1312.5
2015-Apr-12 05:33N 30°34' E 122°09'7 7.0
2015-Apr-12 04:33N 30°38' E 122°03'0 0.0
2015-Apr-12 03:33N 30°38' E 122°03'0 0.0
2015-Apr-12 02:32N 30°38' E 122°03'0 0.0
2015-Apr-12 01:29N 30°38' E 122°03'0 0.0
2015-Apr-12 00:29N 30°38' E 122°03'0 0.0
2015-Apr-11 23:29N 30°38' E 122°03'0 0.0
2015-Apr-11 22:32N 30°38' E 122°03'0 0.0
2015-Apr-11 21:17N 30°38' E 122°03'0 0.0
2015-Apr-11 20:31N 30°38' E 122°03'0 0.0
2015-Apr-11 19:29N 30°38' E 122°03'0 0.0
2015-Apr-11 18:32N 30°38' E 122°03'0 0.0
2015-Apr-11 17:28N 30°38' E 122°03'0 0.0
2015-Apr-11 16:32N 30°38' E 122°03'0 0.0
2015-Apr-11 15:32N 30°38' E 122°03'0 0.0
2015-Apr-11 14:32N 30°38' E 122°03'0 0.0
2015-Apr-11 13:17N 30°38' E 122°03'0 0.0
2015-Apr-11 12:32N 30°38' E 122°03'0 0.0
2015-Apr-11 11:31N 30°38' E 122°03'0 0.0
2015-Apr-11 10:26N 30°38' E 122°03'0 0.0
2015-Apr-11 09:29N 30°38' E 122°03'0 0.0
2015-Apr-11 08:28N 30°38' E 122°03'0 0.0
2015-Apr-11 07:10N 30°38' E 122°03'0 0.0
2015-Apr-11 06:14N 30°38' E 122°03'0 0.6
2015-Apr-11 05:31N 30°38' E 122°03'1111.7
2015-Apr-11 04:33N 30°33' E 122°15'6 6.1
2015-Apr-11 03:30N 30°33' E 122°22'1210.2
2015-Apr-11 02:17N 30°32' E 122°37'1513.1
2015-Apr-11 01:11N 30°34' E 122°53'1212.7
2015-Apr-11 00:16N 30°36' E 123°06'1013.8
2015-Apr-10 23:32N 30°41' E 123°17'1513.4
2015-Apr-10 22:24N 30°45' E 123°34'3 0.7
2015-Apr-10 18:07N 30°48' E 123°34'0 0.5
2015-Apr-10 17:22N 30°48' E 123°34'  

Dump ship's entire track history